Paradise, Missouri
Current Conditions -  °F | °C
As of 10:16 AM on Saturday 25 Oct 2014 (Local Time) from KMCI Reporting Station
Moderate Fog Moderate Fog  
Wind Chill: 60°   Ceiling: Unl
Heat Index: 60°   Visibility: 1.5mi
Dew Point: 60°   Wind: 7mph
Humidity: 100%   Direction: 40°NE
Pressure: 30.09"   Gusts: NA
Location:  39.3944°N, 94.5382°W
Report Text: KMCI 251516Z 04006KT 1 1/2SM FG SCT001 16/16 A3009 RMK AO2 TWR VIS 4 T01560156 $
Loading
Personal Weather Stations






























Interactive Weather Map
Tropical Storm Tracking
New forecast layout! Learn more

10-Day Weather Forecast

Advertisements
Track Severe Weather on mobile